Williston, Tennessee
Current Conditions -  °F | °C
As of 12:55 AM on Monday 24 Nov 2014 (Local Time) from KOLV Reporting Station
Clear Clear  
Wind Chill: 59°   Ceiling: Unl
Heat Index: 59°   Visibility: 7mi
Dew Point: 57°   Wind: 24mph
Humidity: 94%   Direction: 210°SSW
Pressure: 29.44"   Gusts: 32mph
Location:  35.16°N, 89.37°W
Report Text: KOLV 240655Z AUTO 21021G28KT 7SM CLR 15/14 A2944 RMK A01 P000
Loading
Personal Weather Stations






























Interactive Weather Map New forecast layout! Learn more

10-Day Weather Forecast

Advertisements
Track Severe Weather on mobile